Breitsol, Germany

1:40 PM CEST on April 28, 2015 (GMT +0200)
Leidersbach | | Change Station
CLOSE
Current Station
Personal Weather Station
Location: Leidersbach, BAYERN
Elevation: 879 ft
Nearby Weather Stations

Elev 879 ft 49.88 °N, 9.25 °E | Updated 8 minutes ago

Scattered Clouds
Scattered Clouds
54.3 °F
Feels Like 54.3 °F
N
4.0
Wind Variable Wind from South
Gusts 11.0 mph

Today
High -- | Low -- °F
--% Chance of Precip.
Yesterday
High -- | Low -- °F
Precip. -- in
6:05 AM 8:35 PM
Waxing Gibbous, 73% visible
Pressure 30.01 in
Visibility 6.2 miles
Clouds Few 4400 ft
Scattered Clouds 20000 ft
Dew Point 33 °F
Humidity 44%
Rainfall 0.05 in
Snow Depth Not available.
UV 6 out of 12
Pollen Not available.
Air Quality Not available.
Flu Activity Not available.
METAR EDFE 281120Z 27011KT 9999 FEW044 SCT200 12/M06 Q1016

More Conditions Fewer Conditions

Pressure 30.01 in
Visibility 6.2 miles
Clouds Few 4400 ft
Scattered Clouds 20000 ft
Dew Point 33 °F
Humidity 44%
Rainfall 0.05 in
Snow Depth Not available.
UV 6 out of 12
Pollen Not available.
Air Quality Not available.
Flu Activity Not available.
METAR EDFE 281120Z 27011KT 9999 FEW044 SCT200 12/M06 Q1016

More Conditions Fewer Conditions

10-Day Weather Forecast

Almanac

Astronomy

Apr. 28, 2015 Rise Set
Actual Time
Civil Twilight
Nautical Twilight
Astronomical Twilight
Moon
Length of Visible Light
Length of Day
Tomorrow will be .
, % of the Moon is Illuminated

Today's Extremes

Country Highs Country Lows

Community

WunderPhotos

Upload Photos

1,817,610 photos uploaded!

WunderBlogs® & News

Nearby

Air Quality

  Air Quality AQ Index Pollutant
Not available.

Snow Depth

Station Depth Elevation

Earthquake Activity

City Distance Mag. Time & Date
Minimum magnitude displayed is 2.5.

Coastal Water Temperatures

Place Temperature

Stations

Nearby Weather Stations

Station Location Temp. Windchill Dew Point Humidity Wind Precip. Elev Updated Type